Time;durP1;ratioP1;P1;durP2;ratioP2;P2;SDS_P1;SDS_P2;PMS_P1;PMS_P2;Temp;Humidity;BMP_temperature;BMP_pressure;BME280_temperature;BME280_humidity;BME280_pressure;Samples;Min_cycle;Max_cycle;Signal;HPM_P1;HPM_P2
2022/07/22 00:02:33;;;;;;;9.20;6.85;;;;;;;23.18;52.50;100377.38;2137909;83;27719;-59
2022/07/22 00:05:34;;;;;;;8.75;6.95;;;;;;;23.16;52.52;100378.08;2138340;83;28593;-59
2022/07/22 00:08:36;;;;;;;10.05;7.05;;;;;;;23.14;52.64;100381.47;2138064;83;31688;-59
2022/07/22 00:11:37;;;;;;;9.95;6.72;;;;;;;23.11;52.72;100378.16;2137627;83;33469;-59
2022/07/22 00:14:38;;;;;;;14.78;6.85;;;;;;;23.08;52.81;100375.77;2137998;83;30435;-59
2022/07/22 00:17:39;;;;;;;9.15;7.20;;;;;;;23.05;52.84;100379.66;2137802;83;27639;-59
2022/07/22 00:20:42;;;;;;;7.60;6.53;;;;;;;23.01;52.93;100379.61;2137553;83;28592;-58
2022/07/22 00:23:44;;;;;;;18.45;6.42;;;;;;;22.99;53.14;100382.50;2137936;83;31492;-58
2022/07/22 00:26:45;;;;;;;9.60;6.78;;;;;;;22.95;53.20;100383.83;2137802;83;33330;-58
2022/07/22 00:29:46;;;;;;;10.48;7.37;;;;;;;22.93;53.27;100383.64;2137976;83;29104;-58
2022/07/22 00:32:47;;;;;;;7.97;7.17;;;;;;;22.89;53.29;100388.03;2138035;83;27719;-57
2022/07/22 00:35:49;;;;;;;9.43;6.97;;;;;;;22.88;53.27;100391.78;2138340;83;29610;-57
2022/07/22 00:38:50;;;;;;;9.50;6.60;;;;;;;22.86;53.74;100384.24;2138046;83;31650;-57
2022/07/22 00:41:51;;;;;;;7.08;6.22;;;;;;;22.84;53.79;100386.27;2136777;83;32984;-57
2022/07/22 00:44:52;;;;;;;7.92;6.72;;;;;;;22.82;53.99;100391.05;2131179;83;29404;-58
2022/07/22 00:47:53;;;;;;;9.58;6.65;;;;;;;22.81;54.01;100385.73;2131115;83;27743;-59
2022/07/22 00:50:55;;;;;;;8.53;6.87;;;;;;;22.77;54.01;100379.72;2131035;83;29053;-59
2022/07/22 00:53:58;;;;;;;7.95;6.78;;;;;;;22.76;54.10;100374.75;2131592;83;31005;-58
2022/07/22 00:56:59;;;;;;;8.25;7.25;;;;;;;22.76;54.29;100371.17;2131081;83;33098;-59
2022/07/22 01:00:04;;;;;;;7.78;6.97;;;;;;;22.72;54.31;100378.83;2130806;83;29366;-59
2022/07/22 01:03:06;;;;;;;;;;;;;;;22.70;54.38;100369.05;2133894;83;27724;-58
2022/07/22 01:06:08;;;;;;;9.15;6.83;;;;;;;22.67;54.48;100370.74;2131026;83;29046;-59
2022/07/22 01:09:10;;;;;;;7.92;7.22;;;;;;;22.61;54.40;100376.28;2130904;83;32407;-59
2022/07/22 01:12:12;;;;;;;8.53;6.92;;;;;;;22.56;54.46;100387.67;2131140;83;33352;-58
2022/07/22 01:15:13;;;;;;;7.97;7.17;;;;;;;22.52;54.62;100397.17;2131097;83;29239;-58
2022/07/22 01:18:15;;;;;;;14.53;7.45;;;;;;;22.44;54.83;100408.85;2131337;83;27697;-58
2022/07/22 01:21:17;;;;;;;8.98;7.55;;;;;;;22.40;54.98;100415.61;2130865;83;28616;-58
2022/07/22 01:24:18;;;;;;;8.53;6.95;;;;;;;22.34;55.08;100415.36;2130322;83;32200;-57
2022/07/22 01:27:20;;;;;;;11.40;7.70;;;;;;;22.28;55.15;100408.61;2131391;83;33745;-61
2022/07/22 01:30:21;;;;;;;7.87;7.10;;;;;;;22.22;55.39;100410.06;2130816;83;30376;-57
2022/07/22 01:33:24;;;;;;;13.25;8.30;;;;;;;22.18;55.55;100411.37;2131152;83;27690;-57
2022/07/22 01:36:26;;;;;;;9.08;8.18;;;;;;;22.13;55.57;100409.61;2130829;83;28658;-57
2022/07/22 01:39:28;;;;;;;11.57;7.67;;;;;;;22.09;55.63;100405.45;2130946;83;31332;-58
2022/07/22 01:42:29;;;;;;;12.03;8.23;;;;;;;22.04;55.87;100405.91;2131002;83;32898;-58
2022/07/22 01:45:30;;;;;;;11.08;7.25;;;;;;;21.99;55.91;100415.91;2131137;83;29717;-57
2022/07/22 01:48:31;;;;;;;8.93;7.70;;;;;;;21.95;56.03;100426.75;2131178;83;27680;-58
2022/07/22 01:51:33;;;;;;;15.83;8.68;;;;;;;21.89;56.13;100424.59;2131060;83;28664;-59
2022/07/22 01:54:35;;;;;;;10.28;7.67;;;;;;;21.84;56.23;100426.41;2131078;83;32197;-58
2022/07/22 01:57:36;;;;;;;14.85;7.60;;;;;;;21.80;56.45;100420.04;2130885;83;33036;-58
2022/07/22 02:00:38;;;;;;;13.85;8.95;;;;;;;21.76;56.47;100415.88;2130971;83;29500;-58
2022/07/22 02:03:40;;;;;;;12.75;8.70;;;;;;;21.70;56.60;100412.72;2131069;83;27627;-58
2022/07/22 02:06:41;;;;;;;9.83;8.40;;;;;;;21.65;56.78;100402.77;2130510;83;30008;-58
2022/07/22 02:09:45;;;;;;;9.40;7.28;;;;;;;21.60;56.79;100406.89;2130676;83;27779;-58
2022/07/22 02:12:46;;;;;;;9.10;7.50;;;;;;;21.54;56.92;100404.24;2130854;83;33717;-58
2022/07/22 02:15:49;;;;;;;11.03;8.25;;;;;;;21.49;57.04;100412.86;2131078;83;29653;-58
2022/07/22 02:18:52;;;;;;;12.20;8.03;;;;;;;21.46;57.29;100430.86;2130975;83;27648;-58
2022/07/22 02:21:53;;;;;;;12.00;8.08;;;;;;;21.42;57.32;100436.75;2130882;83;29237;-58
2022/07/22 02:24:55;;;;;;;11.80;8.13;;;;;;;21.36;57.41;100440.41;2131147;83;30968;-59
2022/07/22 02:27:56;;;;;;;9.15;7.55;;;;;;;21.32;57.56;100451.25;2130812;83;33524;-57
2022/07/22 02:30:58;;;;;;;12.82;7.80;;;;;;;21.25;57.61;100460.50;2130759;83;29999;-58
2022/07/22 02:33:59;;;;;;;13.55;7.80;;;;;;;21.20;57.93;100471.44;2131284;83;27658;-58
2022/07/22 02:37:01;;;;;;;9.50;8.38;;;;;;;21.15;57.96;100471.02;2131217;83;29033;-57
2022/07/22 02:40:05;;;;;;;9.93;8.08;;;;;;;21.10;58.18;100462.77;2130976;83;30994;-60
2022/07/22 02:43:06;;;;;;;12.95;8.35;;;;;;;21.08;58.26;100477.54;2129618;83;33750;-59
2022/07/22 02:46:08;;;;;;;10.63;8.63;;;;;;;21.07;58.53;100478.53;2127208;83;29446;-57
2022/07/22 02:49:09;;;;;;;10.63;8.28;;;;;;;21.08;58.78;100486.55;2127693;83;27675;-59
2022/07/22 02:52:10;;;;;;;11.18;7.80;;;;;;;21.11;58.77;100499.02;2127568;83;29081;-58
2022/07/22 02:55:11;;;;;;;13.28;8.78;;;;;;;21.14;58.87;100508.28;2127714;83;30809;-57
2022/07/22 02:58:12;;;;;;;9.30;8.23;;;;;;;21.18;59.34;100532.89;2128075;83;33559;-57
2022/07/22 03:01:14;;;;;;;10.72;8.88;;;;;;;21.22;59.22;100562.95;2127591;83;30406;-57
2022/07/22 03:04:16;;;;;;;9.78;8.78;;;;;;;21.31;59.23;100576.73;2127244;83;27700;-58
2022/07/22 03:07:18;;;;;;;11.75;8.75;;;;;;;21.38;59.45;100590.17;2127158;83;30046;-58
2022/07/22 03:10:19;;;;;;;11.03;8.88;;;;;;;21.46;59.46;100588.11;2126194;83;31422;-57
2022/07/22 03:13:20;;;;;;;9.35;8.10;;;;;;;21.54;59.51;100578.23;2127065;83;34095;-57
2022/07/22 03:16:22;;;;;;;8.88;7.62;;;;;;;21.62;59.55;100572.59;2127489;83;29449;-57
2022/07/22 03:19:23;;;;;;;14.45;9.15;;;;;;;21.69;59.58;100569.66;2127668;83;28151;-58
2022/07/22 03:22:25;;;;;;;20.80;9.68;;;;;;;21.75;59.48;100566.38;2127711;83;28639;-58
2022/07/22 03:25:26;;;;;;;23.12;11.85;;;;;;;21.82;60.10;100578.94;2127320;83;30870;-59
2022/07/22 03:28:28;;;;;;;18.27;12.15;;;;;;;21.87;61.02;100572.53;2127254;83;34178;-58
2022/07/22 03:31:29;;;;;;;16.97;12.18;;;;;;;21.88;61.67;100546.98;2127286;83;30508;-58
2022/07/22 03:34:30;;;;;;;18.85;12.50;;;;;;;21.85;62.42;100529.05;2127689;83;27581;-59
2022/07/22 03:37:32;;;;;;;21.60;14.70;;;;;;;21.79;62.71;100522.80;2103476;83;29029;-58
2022/07/22 03:40:34;;;;;;;22.35;14.20;;;;;;;21.70;63.87;100510.88;2127468;83;31399;-59
2022/07/22 03:43:35;;;;;;;23.92;13.15;;;;;;;21.60;64.40;100498.22;2128706;82;33952;-59
2022/07/22 03:46:37;;;;;;;17.92;12.98;;;;;;;21.49;64.60;100491.06;2131244;83;30295;-59
2022/07/22 03:49:39;;;;;;;16.52;13.28;;;;;;;21.40;64.94;100475.91;2131157;83;28204;-58
2022/07/22 03:52:40;;;;;;;16.93;14.33;;;;;;;21.33;65.21;100461.16;2130821;83;29602;-58
2022/07/22 03:55:41;;;;;;;17.42;14.93;;;;;;;21.23;65.55;100441.19;2131237;83;31116;-58
2022/07/22 03:58:43;;;;;;;20.80;15.30;;;;;;;21.13;65.72;100430.80;2130876;83;33801;-58
2022/07/22 04:01:44;;;;;;;17.52;15.65;;;;;;;21.07;65.93;100437.67;2131210;83;29321;-58
2022/07/22 04:04:46;;;;;;;21.93;15.30;;;;;;;21.03;66.38;100433.50;2131048;83;27522;-58
2022/07/22 04:07:47;;;;;;;17.67;15.15;;;;;;;20.99;66.46;100422.52;2131196;83;29889;-59
2022/07/22 04:10:49;;;;;;;25.40;15.60;;;;;;;20.97;66.98;100407.70;2131182;83;32155;-58
2022/07/22 04:13:51;;;;;;;18.07;14.60;;;;;;;20.92;67.04;100405.41;2131617;83;33288;-58
2022/07/22 04:16:52;;;;;;;17.32;15.45;;;;;;;20.91;67.16;100405.53;2130870;83;29347;-58
2022/07/22 04:19:54;;;;;;;19.02;13.88;;;;;;;20.90;67.34;100406.53;2131674;83;27534;-58
2022/07/22 04:22:56;;;;;;;20.50;15.78;;;;;;;20.91;67.65;100405.53;2131132;83;28790;-58
2022/07/22 04:25:57;;;;;;;23.55;15.70;;;;;;;20.91;67.85;100400.96;2130929;83;31496;-58
2022/07/22 04:28:59;;;;;;;19.12;14.93;;;;;;;20.93;68.22;100411.18;2131103;83;33326;-59
2022/07/22 04:32:00;;;;;;;18.70;14.23;;;;;;;20.93;68.08;100397.56;2130949;83;29349;-58
2022/07/22 04:35:02;;;;;;;21.82;16.07;;;;;;;20.95;68.20;100398.29;2131163;83;27703;-58
2022/07/22 04:38:03;;;;;;;17.90;16.00;;;;;;;20.97;68.27;100394.08;2131167;83;29470;-57
2022/07/22 04:41:06;;;;;;;24.12;16.73;;;;;;;21.03;68.53;100392.65;2130779;83;32128;-59
2022/07/22 04:44:07;;;;;;;16.93;14.47;;;;;;;21.07;68.47;100398.18;2130873;82;33378;-59
2022/07/22 04:47:09;;;;;;;19.45;15.32;;;;;;;21.11;68.21;100394.14;2131094;83;28807;-58
2022/07/22 04:50:10;;;;;;;19.80;14.40;;;;;;;21.14;68.06;100412.94;2130980;83;27582;-58
2022/07/22 04:53:12;;;;;;;18.37;15.23;;;;;;;21.18;68.15;100410.29;2131265;83;28642;-58
2022/07/22 04:56:13;;;;;;;23.50;15.90;;;;;;;21.21;68.06;100403.20;2130833;83;32217;-58
2022/07/22 04:59:15;;;;;;;20.15;16.07;;;;;;;21.30;68.26;100398.75;2130800;83;34121;-58
2022/07/22 05:02:17;;;;;;;18.62;14.53;;;;;;;21.47;68.54;100401.76;2130933;83;29367;-59
2022/07/22 05:05:18;;;;;;;19.48;15.65;;;;;;;21.62;68.36;100407.15;2131211;83;27570;-58
2022/07/22 05:08:20;;;;;;;19.20;15.10;;;;;;;21.80;68.31;100398.22;2131196;83;28720;-59
2022/07/22 05:11:22;;;;;;;16.67;14.87;;;;;;;22.22;68.90;100400.52;2131033;83;31376;-58
2022/07/22 05:14:23;;;;;;;15.10;12.80;;;;;;;22.75;68.25;100400.86;2130732;83;32932;-58
2022/07/22 05:17:25;;;;;;;15.53;12.75;;;;;;;23.39;68.06;100410.41;2131063;83;29340;-59
2022/07/22 05:20:26;;;;;;;12.82;11.40;;;;;;;24.10;66.80;100405.83;2131263;83;27645;-59
2022/07/22 05:23:28;;;;;;;14.33;12.85;;;;;;;24.46;65.54;100411.64;2130835;83;28785;-59
2022/07/22 05:26:31;;;;;;;16.93;12.53;;;;;;;24.67;64.83;100409.00;2131200;83;31594;-59
2022/07/22 05:29:32;;;;;;;18.20;12.68;;;;;;;25.12;64.68;100415.98;2130764;83;34129;-58
2022/07/22 05:32:34;;;;;;;14.70;12.25;;;;;;;25.50;64.13;100419.64;2131092;83;29742;-58
2022/07/22 05:35:35;;;;;;;13.62;12.03;;;;;;;26.29;64.15;100423.16;2131323;83;27738;-60
2022/07/22 05:38:37;;;;;;;13.72;12.03;;;;;;;27.02;63.25;100431.27;2131132;83;27994;-59
2022/07/22 05:41:39;;;;;;;14.60;12.23;;;;;;;27.72;62.03;100426.66;2131070;83;31463;-60
2022/07/22 05:44:41;;;;;;;13.90;12.03;;;;;;;28.34;61.07;100430.71;2113658;83;33769;-59
2022/07/22 05:47:42;;;;;;;14.03;12.40;;;;;;;28.85;59.44;100437.34;2098437;84;29274;-59
2022/07/22 05:50:44;;;;;;;9.20;8.40;;;;;;;29.29;58.13;100446.00;2098659;84;27836;-59
2022/07/22 05:53:45;;;;;;;16.93;11.30;;;;;;;29.60;56.98;100449.52;2098502;84;29458;-59
2022/07/22 05:56:48;;;;;;;14.00;11.53;;;;;;;29.87;56.76;100446.44;2098331;84;31874;-60
2022/07/22 05:59:49;;;;;;;13.03;11.25;;;;;;;30.20;55.29;100444.47;2098180;84;32932;-59
2022/07/22 06:02:50;;;;;;;12.15;10.08;;;;;;;30.53;54.75;100447.13;2098582;84;29008;-59
2022/07/22 06:05:52;;;;;;;11.22;10.00;;;;;;;30.95;53.09;100449.89;2098203;84;27689;-59
2022/07/22 06:08:53;;;;;;;13.25;10.80;;;;;;;31.41;52.51;100447.80;2098591;84;29109;-57
2022/07/22 06:11:55;;;;;;;11.38;9.70;;;;;;;31.30;51.58;100446.50;2098561;84;31057;-58
2022/07/22 06:14:56;;;;;;;11.33;10.10;;;;;;;31.33;51.01;100451.63;2098866;84;33871;-58
2022/07/22 06:17:57;;;;;;;11.33;10.23;;;;;;;31.75;50.69;100450.64;2098559;84;30489;-58
2022/07/22 06:20:59;;;;;;;19.73;10.38;;;;;;;32.21;49.24;100448.88;2098627;84;27647;-58
2022/07/22 06:24:00;;;;;;;12.58;10.50;;;;;;;32.82;48.95;100454.63;2098557;84;29093;-58
2022/07/22 06:27:02;;;;;;;14.05;10.50;;;;;;;33.43;47.92;100454.32;2098487;84;32194;-58
2022/07/22 06:30:05;;;;;;;12.98;10.88;;;;;;;34.00;46.61;100449.31;2098399;84;32436;-59
2022/07/22 06:33:07;;;;;;;11.95;10.48;;;;;;;34.50;45.01;100445.59;2098611;84;30124;-59
2022/07/22 06:36:09;;;;;;;13.03;9.23;;;;;;;34.91;44.42;100441.77;2098522;84;27643;-58
2022/07/22 06:39:10;;;;;;;14.40;9.68;;;;;;;35.36;43.39;100436.34;2098558;84;29837;-58
2022/07/22 06:42:12;;;;;;;10.55;8.50;;;;;;;35.82;42.58;100438.92;2098487;84;31372;-59
2022/07/22 06:45:13;;;;;;;10.48;9.48;;;;;;;36.29;41.29;100435.31;2098520;83;33872;-58
2022/07/22 06:48:15;;;;;;;9.90;8.93;;;;;;;36.68;40.29;100440.36;2098175;84;29453;-59
2022/07/22 06:51:16;;;;;;;10.32;9.30;;;;;;;37.04;39.13;100441.65;2098441;84;27790;-58
2022/07/22 06:54:18;;;;;;;12.28;9.50;;;;;;;37.42;38.55;100440.69;2098538;84;29583;-58
2022/07/22 06:57:20;;;;;;;7.05;6.45;;;;;;;37.81;37.98;100444.43;2098385;84;31712;-59
2022/07/22 07:00:21;;;;;;;10.80;8.73;;;;;;;38.14;36.82;100446.09;2098789;84;33870;-59
2022/07/22 07:03:25;;;;;;;10.32;9.35;;;;;;;38.34;35.89;100452.52;2098200;84;29294;-57
2022/07/22 07:06:26;;;;;;;10.60;8.98;;;;;;;38.19;34.91;100446.17;2098489;84;27701;-58
2022/07/22 07:09:28;;;;;;;13.03;10.03;;;;;;;37.83;34.84;100446.98;2098482;84;29027;-58
2022/07/22 07:12:29;;;;;;;8.43;7.47;;;;;;;37.32;35.27;100446.38;2098501;84;31427;-59
2022/07/22 07:15:31;;;;;;;10.45;8.93;;;;;;;37.18;35.07;100447.23;2098691;84;33959;-57
2022/07/22 07:18:34;;;;;;;9.40;8.58;;;;;;;37.34;35.52;100446.98;2098673;84;30087;-57
2022/07/22 07:21:35;;;;;;;10.53;8.88;;;;;;;37.60;35.04;100440.45;2098712;84;27606;-58
2022/07/22 07:24:37;;;;;;;10.18;9.18;;;;;;;37.83;34.45;100447.82;2098771;84;29624;-58
2022/07/22 07:27:39;;;;;;;9.80;8.75;;;;;;;38.06;34.20;100446.55;2098127;84;31382;-57
2022/07/22 07:30:41;;;;;;;10.08;9.18;;;;;;;38.19;33.83;100446.17;2098576;84;33503;-58
2022/07/22 07:33:42;;;;;;;7.20;6.60;;;;;;;37.97;33.51;100456.75;2098617;84;30376;-57
2022/07/22 07:36:44;;;;;;;9.80;8.85;;;;;;;37.98;32.99;100447.26;2098465;84;27699;-58
2022/07/22 07:39:46;;;;;;;9.58;8.75;;;;;;;38.11;33.40;100443.80;2098509;84;29919;-57
2022/07/22 07:43:06;;;;;;;14.87;10.15;;;;;;;38.22;32.90;100440.07;2098195;84;27619;-59
2022/07/22 07:46:08;;;;;;;11.18;10.15;;;;;;;38.07;32.70;100446.27;2097879;83;35180;-58
2022/07/22 07:49:10;;;;;;;8.33;7.62;;;;;;;37.98;32.75;100444.46;2097943;84;30221;-59
2022/07/22 07:52:15;;;;;;;9.10;8.20;;;;;;;37.88;32.61;100446.22;2098440;84;27963;-58
2022/07/22 07:55:16;;;;;;;8.98;7.28;;;;;;;37.92;32.44;100446.87;2098469;84;28830;-58
2022/07/22 07:58:18;;;;;;;14.70;10.18;;;;;;;37.99;32.23;100443.90;2098163;84;31452;-58
2022/07/22 08:01:19;;;;;;;12.80;11.05;;;;;;;37.92;32.10;100451.07;2131060;83;32956;-57
2022/07/22 08:04:20;;;;;;;11.88;9.55;;;;;;;37.61;31.74;100448.31;2088591;85;29691;-58
2022/07/22 08:07:21;;;;;;;10.68;9.58;;;;;;;37.36;32.39;100437.80;2088308;85;27703;-60
2022/07/22 08:10:23;;;;;;;7.42;6.72;;;;;;;37.47;32.74;100439.39;2088476;85;29831;-58
2022/07/22 08:13:24;;;;;;;17.40;10.18;;;;;;;37.70;32.36;100442.05;2088560;85;31904;-58
2022/07/22 08:16:25;;;;;;;10.90;8.68;;;;;;;37.78;31.75;100448.30;2088374;85;33333;-59
2022/07/22 08:19:28;;;;;;;10.98;9.88;;;;;;;37.85;31.85;100442.83;2072869;85;43886;-58
2022/07/22 08:22:29;;;;;;;10.13;9.05;;;;;;;37.99;31.56;100442.50;2054209;86;27893;-60
2022/07/22 08:25:31;;;;;;;15.35;10.80;;;;;;;38.00;31.47;100439.46;2054751;86;29006;-58
2022/07/22 08:28:32;;;;;;;14.60;10.80;;;;;;;38.10;31.29;100442.11;2054392;86;31363;-59
2022/07/22 08:31:34;;;;;;;10.30;9.30;;;;;;;38.14;31.12;100442.72;2054356;86;33341;-59
2022/07/22 08:34:36;;;;;;;14.35;10.68;;;;;;;38.20;31.08;100442.27;2054975;86;30099;-58
2022/07/22 08:37:38;;;;;;;9.45;7.40;;;;;;;38.14;30.74;100441.89;2054207;86;27681;-60
2022/07/22 08:40:40;;;;;;;11.08;9.98;;;;;;;38.12;30.52;100448.30;2065223;85;29873;-59
2022/07/22 08:43:42;;;;;;;6.95;6.25;;;;;;;38.18;30.63;100450.08;2088557;84;32185;-58
2022/07/22 08:46:45;;;;;;;11.60;10.32;;;;;;;38.23;30.54;100447.33;2112547;83;34203;-64
2022/07/22 08:49:46;;;;;;;18.27;11.73;;;;;;;38.39;30.69;100446.20;2098507;84;29477;-65
2022/07/22 08:52:49;;;;;;;13.13;10.58;;;;;;;38.43;30.73;100444.56;2058389;85;27661;-66
2022/07/22 08:55:50;;;;;;;12.30;10.78;;;;;;;38.39;30.48;100453.20;2046464;87;29061;-66
2022/07/22 08:58:51;;;;;;;12.15;10.95;;;;;;;38.36;30.42;100449.48;2046124;87;31172;-66
2022/07/22 09:02:09;;;;;;;11.08;9.98;;;;;;;38.42;30.43;100454.92;2046074;87;34179;-66
2022/07/22 09:05:16;;;;;;;12.30;11.10;;;;;;;38.30;30.15;100447.17;2047663;86;30177;-67
2022/07/22 09:08:18;;;;;;;11.28;10.18;;;;;;;38.14;30.05;100446.09;2117506;84;28138;-66
2022/07/22 09:11:22;;;;;;;11.75;10.48;;;;;;;37.97;29.81;100438.57;2117489;84;29508;-65
2022/07/22 09:14:23;;;;;;;12.78;11.40;;;;;;;37.77;29.95;100439.07;2080087;85;31100;-66
2022/07/22 09:17:29;;;;;;;8.15;7.35;;;;;;;37.60;29.86;100437.66;2052301;85;33329;-64
2022/07/22 09:20:32;;;;;;;10.85;8.25;;;;;;;37.44;29.72;100439.36;2042118;87;30463;-65
2022/07/22 09:23:41;;;;;;;10.50;9.50;;;;;;;37.40;30.08;100431.98;2082267;85;27671;-65
2022/07/22 09:26:42;;;;;;;10.72;9.70;;;;;;;37.43;30.17;100436.27;2027416;87;28703;-66
2022/07/22 09:29:53;;;;;;;13.05;10.05;;;;;;;37.35;30.28;100433.30;2081932;85;32292;-66
2022/07/22 09:32:56;;;;;;;11.70;10.55;;;;;;;37.24;30.00;100428.61;2082038;85;34115;-65
2022/07/22 09:36:03;;;;;;;11.10;9.85;;;;;;;36.98;30.46;100435.12;2046457;87;30309;-65
2022/07/22 09:39:24;;;;;;;10.78;9.70;;;;;;;36.91;30.63;100426.86;2046335;87;27684;-65
2022/07/22 09:42:25;;;;;;;9.78;8.88;;;;;;;36.97;31.02;100425.61;2082907;84;28494;-64
2022/07/22 09:45:31;;;;;;;12.25;8.00;;;;;;;36.91;30.74;100431.05;2061375;86;32326;-67
2022/07/22 09:48:32;;;;;;;13.65;9.15;;;;;;;36.90;31.02;100434.94;2100631;84;33836;-66
2022/07/22 09:51:34;;;;;;;9.78;8.85;;;;;;;36.93;30.92;100430.29;2109264;83;29368;-65
2022/07/22 09:54:35;;;;;;;10.28;9.40;;;;;;;36.78;30.53;100419.62;2049448;86;27709;-65
2022/07/22 09:57:37;;;;;;;11.45;10.32;;;;;;;36.57;30.73;100427.30;2036857;87;28786;-66
2022/07/22 10:00:42;;;;;;;11.20;8.03;;;;;;;36.28;30.73;100422.98;2085378;84;31008;-65
2022/07/22 10:03:45;;;;;;;10.48;9.38;;;;;;;36.04;30.67;100423.86;2082486;84;32925;-66
2022/07/22 10:06:48;;;;;;;15.30;10.47;;;;;;;35.94;30.99;100418.55;2083014;85;29379;-66
2022/07/22 10:09:50;;;;;;;12.60;8.58;;;;;;;35.83;30.99;100412.75;2044014;86;27685;-65
2022/07/22 10:12:55;;;;;;;8.08;7.28;;;;;;;35.59;30.64;100411.88;2049142;86;28571;-65
2022/07/22 10:15:57;;;;;;;3.95;3.60;;;;;;;35.39;30.89;100404.66;2036174;87;32222;-66
2022/07/22 10:18:59;;;;;;;7.87;7.17;;;;;;;35.28;30.88;100409.67;2085272;85;32967;-65
2022/07/22 10:22:00;;;;;;;6.40;5.90;;;;;;;35.17;30.05;100410.47;2085326;84;29394;-63
2022/07/22 10:25:02;;;;;;;7.45;6.72;;;;;;;34.92;30.46;100406.72;2085256;85;27700;-67
2022/07/22 10:28:05;;;;;;;9.50;7.83;;;;;;;34.82;30.62;100405.92;2085140;84;28632;-66
2022/07/22 10:31:24;;;;;;;8.48;6.62;;;;;;;34.74;30.38;100399.27;2030556;87;31046;-64
2022/07/22 10:34:26;;;;;;;5.62;4.67;;;;;;;34.62;30.52;100393.64;2085193;85;33067;-65
2022/07/22 10:37:40;;;;;;;8.55;6.67;;;;;;;34.46;30.87;100379.84;2049454;86;29377;-65
2022/07/22 10:40:54;;;;;;;8.30;7.50;;;;;;;34.51;30.97;100384.70;2030797;86;27622;-66
2022/07/22 10:43:55;;;;;;;9.05;7.60;;;;;;;34.41;30.81;100395.50;2030760;87;28636;-65
2022/07/22 10:46:58;;;;;;;10.08;7.53;;;;;;;34.29;30.72;100388.47;2038456;86;31087;-68
2022/07/22 10:50:37;;;;;;;9.10;7.83;;;;;;;34.14;30.80;100393.01;2042721;86;33838;-66
2022/07/22 10:53:56;;;;;;;8.03;7.17;;;;;;;34.04;30.94;100386.59;2030720;87;27725;-63
2022/07/22 10:57:00;;;;;;;9.78;8.30;;;;;;;34.00;31.56;100393.16;2042859;86;27688;-64
2022/07/22 11:00:01;;;;;;;;;;;;;;;34.00;31.77;100390.93;2075593;85;31233;-64
2022/07/22 11:03:03;;;;;;;9.18;5.80;;;;;;;33.98;31.42;100386.14;2073075;85;31037;-64
2022/07/22 11:06:34;;;;;;;7.67;6.97;;;;;;;33.92;31.96;100387.91;2093465;85;33351;-64
2022/07/22 11:09:39;;;;;;;6.97;6.35;;;;;;;33.91;31.72;100379.26;2094520;85;29520;-65
2022/07/22 11:12:41;;;;;;;8.00;7.17;;;;;;;33.85;31.61;100374.58;2093876;85;27724;-68
2022/07/22 11:15:42;;;;;;;8.58;6.95;;;;;;;33.79;31.63;100377.73;2093143;85;28867;-67
2022/07/22 11:18:57;;;;;;;8.95;6.92;;;;;;;33.77;31.53;100372.94;2094386;85;30992;-65
2022/07/22 11:22:06;;;;;;;6.53;5.35;;;;;;;33.73;31.41;100373.95;2094278;85;32969;-67
2022/07/22 11:25:10;;;;;;;8.28;7.47;;;;;;;33.75;31.70;100368.15;2069182;85;30124;-70
2022/07/22 11:28:11;;;;;;;13.20;7.37;;;;;;;33.75;31.68;100362.59;2010118;87;27670;-69
2022/07/22 11:31:18;;;;;;;12.85;7.87;;;;;;;33.67;31.54;100367.06;2010055;88;29458;-68
2022/07/22 11:34:23;;;;;;;8.05;7.35;;;;;;;33.50;31.62;100367.64;2039475;87;30923;-69
2022/07/22 11:37:27;;;;;;;9.43;8.33;;;;;;;33.37;31.55;100360.78;2095132;85;33661;-68
2022/07/22 11:40:33;;;;;;;5.87;5.28;;;;;;;33.25;31.65;100357.88;2095154;84;29377;-68
2022/07/22 11:43:49;;;;;;;8.18;6.92;;;;;;;33.12;31.90;100352.72;2046158;87;27600;-69
2022/07/22 11:46:51;;;;;;;9.35;7.45;;;;;;;33.05;32.01;100353.84;2087920;84;28118;-69
2022/07/22 11:49:56;;;;;;;7.37;6.72;;;;;;;32.96;31.85;100346.31;2046115;86;31124;-69
2022/07/22 11:52:57;;;;;;;10.88;7.17;;;;;;;32.87;31.53;100347.98;2027134;87;32964;-69
2022/07/22 11:56:00;;;;;;;6.95;6.25;;;;;;;32.75;31.97;100348.36;2065930;86;29312;-70
2022/07/22 11:59:07;;;;;;;10.72;6.80;;;;;;;32.62;31.64;100347.02;2066364;85;28205;-70
2022/07/22 12:02:09;;;;;;;7.62;6.45;;;;;;;32.51;31.92;100345.81;2065690;86;29523;-69
2022/07/22 12:05:10;;;;;;;6.87;5.42;;;;;;;32.52;32.12;100341.94;2065877;85;31038;-70
2022/07/22 12:08:12;;;;;;;6.65;5.90;;;;;;;32.52;31.83;100343.33;2065884;86;33083;-71
2022/07/22 12:11:16;;;;;;;9.25;5.60;;;;;;;32.54;31.91;100338.41;2065934;86;29298;-66
2022/07/22 12:14:19;;;;;;;;;;;;;;;32.51;31.75;100332.78;2068512;86;27729;-70
2022/07/22 12:17:23;;;;;;;6.47;5.78;;;;;;;32.46;31.48;100327.05;2065999;86;28643;-69
2022/07/22 12:20:25;;;;;;;7.30;6.17;;;;;;;32.36;31.76;100330.83;2042641;86;31188;-67
2022/07/22 12:23:27;;;;;;;5.65;5.25;;;;;;;32.43;31.78;100335.83;2066112;85;33667;-68
2022/07/22 12:26:48;;;;;;;6.30;4.85;;;;;;;32.39;31.16;100318.76;2066080;86;29387;-67
2022/07/22 12:29:50;;;;;;;7.40;5.60;;;;;;;32.39;31.17;100315.98;2066173;86;27687;-68
2022/07/22 12:32:51;;;;;;;8.15;5.62;;;;;;;32.47;31.25;100314.05;2066069;85;28671;-68
2022/07/22 12:36:03;;;;;;;6.20;5.42;;;;;;;32.57;31.32;100313.02;2066158;85;31010;-67
2022/07/22 12:39:18;;;;;;;6.20;5.33;;;;;;;32.65;31.16;100307.22;2065827;85;32976;-66
2022/07/22 12:42:20;;;;;;;6.35;5.37;;;;;;;32.70;30.61;100299.06;2065670;86;29257;-67
2022/07/22 12:45:21;;;;;;;6.42;5.72;;;;;;;32.72;30.93;100296.92;2066213;86;27825;-69
2022/07/22 12:48:29;;;;;;;6.10;4.70;;;;;;;32.83;30.96;100298.72;2065838;85;29491;-68
2022/07/22 12:51:33;;;;;;;6.87;6.17;;;;;;;32.92;30.73;100297.91;2066191;85;31052;-67
2022/07/22 12:54:37;;;;;;;6.40;5.60;;;;;;;32.96;30.37;100296.36;2066026;86;32951;-68
2022/07/22 12:57:38;;;;;;;7.53;6.10;;;;;;;33.03;30.87;100298.56;2043219;86;29337;-68
2022/07/22 13:00:52;;;;;;;7.20;5.50;;;;;;;33.13;30.96;100293.34;2066219;86;27743;-72
2022/07/22 13:03:53;;;;;;;8.10;5.72;;;;;;;33.24;30.57;100288.98;2066142;85;28643;-70
2022/07/22 13:06:55;;;;;;;10.05;5.70;;;;;;;33.29;30.56;100290.55;2066097;86;31085;-71
2022/07/22 13:09:56;;;;;;;5.62;4.65;;;;;;;33.31;30.31;100283.37;2066016;86;32954;-68
2022/07/22 13:12:58;;;;;;;6.50;5.60;;;;;;;33.36;30.05;100289.66;2066087;86;29386;-70
2022/07/22 13:15:59;;;;;;;5.83;5.33;;;;;;;33.35;29.97;100287.40;2066190;86;27709;-69
2022/07/22 13:19:01;;;;;;;7.12;5.60;;;;;;;33.34;29.75;100280.14;2066146;85;28622;-70
2022/07/22 13:22:02;;;;;;;9.28;5.28;;;;;;;33.33;29.96;100278.44;2046133;87;31025;-71
2022/07/22 13:25:04;;;;;;;7.62;5.72;;;;;;;33.34;29.95;100283.75;2027775;87;32931;-69
2022/07/22 13:28:06;;;;;;;7.65;4.65;;;;;;;33.29;29.92;100283.61;2027356;87;30423;-71
2022/07/22 13:31:09;;;;;;;6.15;5.37;;;;;;;33.34;29.63;100281.53;2027776;86;27697;-69
2022/07/22 13:34:10;;;;;;;5.83;5.37;;;;;;;33.39;29.54;100278.09;2027557;87;28731;-69
2022/07/22 13:37:11;;;;;;;5.30;4.85;;;;;;;33.39;29.22;100276.19;2082095;85;31007;-69
2022/07/22 13:40:14;;;;;;;5.83;4.97;;;;;;;33.38;28.96;100275.88;2081963;85;32968;-70
2022/07/22 13:43:15;;;;;;;7.12;4.87;;;;;;;33.33;29.10;100272.37;2046384;87;30165;-71
2022/07/22 13:46:18;;;;;;;6.75;5.17;;;;;;;33.37;29.54;100277.47;2028489;86;27689;-68
2022/07/22 13:49:19;;;;;;;5.37;4.87;;;;;;;33.40;29.16;100273.72;2042545;86;28672;-69
2022/07/22 13:52:20;;;;;;;5.85;5.25;;;;;;;33.38;29.01;100269.45;2042834;87;31266;-69
2022/07/22 13:55:22;;;;;;;7.55;5.37;;;;;;;33.36;29.39;100272.47;2075514;85;33027;-70
2022/07/22 13:58:23;;;;;;;5.85;5.25;;;;;;;33.43;29.36;100269.62;2075719;85;30147;-68
2022/07/22 14:01:24;;;;;;;9.20;5.30;;;;;;;33.43;29.30;100266.30;2075780;85;27661;-69
2022/07/22 14:04:26;;;;;;;9.80;5.90;;;;;;;33.40;28.67;100264.00;2075789;85;28611;-71